createdAt,value
2018-09-13T00:00:40.852Z,0.00
2018-09-13T00:01:40.888Z,0.00
2018-09-13T00:02:41.537Z,0.00
2018-09-13T00:03:40.996Z,0.00
2018-09-13T00:04:41.041Z,0.00
2018-09-13T00:05:41.141Z,0.00
2018-09-13T00:06:41.142Z,0.00
2018-09-13T00:07:41.259Z,0.00
2018-09-13T00:08:41.248Z,0.00
2018-09-13T00:09:41.296Z,0.00
2018-09-13T00:10:41.387Z,0.00
2018-09-13T00:11:41.460Z,0.00
2018-09-13T00:12:41.451Z,0.00
2018-09-13T00:13:41.505Z,0.00
2018-09-13T00:14:41.557Z,0.00
2018-09-13T00:15:41.634Z,0.00
2018-09-13T00:16:41.657Z,0.00
2018-09-13T00:17:42.541Z,0.00
2018-09-13T00:18:41.830Z,0.00
2018-09-13T00:19:41.812Z,0.00
2018-09-13T00:20:41.890Z,0.00
2018-09-13T00:21:41.912Z,0.00
2018-09-13T00:22:41.978Z,0.00
2018-09-13T00:23:42.015Z,0.00
2018-09-13T00:24:42.063Z,0.00
2018-09-13T00:25:42.188Z,0.00
2018-09-13T00:26:42.169Z,0.00
2018-09-13T00:27:42.246Z,0.00
2018-09-13T00:28:42.292Z,0.00
2018-09-13T00:29:42.328Z,0.00
2018-09-13T00:30:42.376Z,0.00
2018-09-13T00:31:42.422Z,0.00
2018-09-13T00:32:42.502Z,0.00
2018-09-13T00:33:42.550Z,0.00
2018-09-13T00:34:42.575Z,0.00
2018-09-13T00:35:42.627Z,0.00
2018-09-13T00:36:42.698Z,0.00
2018-09-13T00:37:42.748Z,0.00
2018-09-13T00:38:42.802Z,0.00
2018-09-13T00:39:42.837Z,0.00
2018-09-13T00:40:42.883Z,0.00
2018-09-13T00:41:42.945Z,0.00
2018-09-13T00:42:42.985Z,0.00
2018-09-13T00:43:43.055Z,0.00
2018-09-13T00:44:43.196Z,0.00
2018-09-13T00:45:43.147Z,0.00
2018-09-13T00:46:43.189Z,0.00
2018-09-13T00:47:43.246Z,0.00
2018-09-13T00:48:43.317Z,0.00
2018-09-13T00:49:43.373Z,0.00
2018-09-13T00:50:44.049Z,0.00
2018-09-13T00:51:43.446Z,0.00
2018-09-13T00:52:43.498Z,0.00
2018-09-13T00:53:43.548Z,0.00
2018-09-13T00:54:43.617Z,0.00
2018-09-13T00:55:43.652Z,0.00
2018-09-13T00:56:43.713Z,0.00
2018-09-13T00:57:43.799Z,0.00
2018-09-13T00:58:43.811Z,0.00
2018-09-13T00:59:43.856Z,0.00
2018-09-13T01:00:43.908Z,0.00
2018-09-13T01:01:43.955Z,0.00
2018-09-13T01:02:44.054Z,0.00
2018-09-13T01:03:44.066Z,0.00
2018-09-13T01:04:44.115Z,0.00
2018-09-13T01:05:44.166Z,0.00
2018-09-13T01:06:44.212Z,0.00
2018-09-13T01:07:44.285Z,0.00
2018-09-13T01:08:44.317Z,0.00
2018-09-13T01:09:44.366Z,0.00
2018-09-13T01:10:44.421Z,0.00
2018-09-13T01:11:44.471Z,0.00
2018-09-13T01:12:44.542Z,0.00
2018-09-13T01:13:45.088Z,0.00
2018-09-13T01:14:44.656Z,0.00
2018-09-13T01:15:45.088Z,0.00
2018-09-13T01:16:44.730Z,0.00
2018-09-13T01:17:44.784Z,0.00
2018-09-13T01:18:44.827Z,0.00
2018-09-13T01:19:44.898Z,0.00
2018-09-13T01:20:45.409Z,0.00
2018-09-13T01:21:44.986Z,0.00
2018-09-13T01:22:45.559Z,0.00
2018-09-13T01:23:45.113Z,0.00
2018-09-13T01:24:45.146Z,0.00
2018-09-13T01:25:45.189Z,0.00
2018-09-13T01:26:45.235Z,0.00
2018-09-13T01:27:45.289Z,0.00
2018-09-13T01:28:45.365Z,0.00
2018-09-13T01:29:45.422Z,0.00
2018-09-13T01:30:45.461Z,0.00
2018-09-13T01:31:45.496Z,0.00
2018-09-13T01:32:45.548Z,0.00
2018-09-13T01:33:45.593Z,0.00
2018-09-13T01:34:46.562Z,0.00
2018-09-13T01:35:45.716Z,0.00
2018-09-13T01:36:45.751Z,0.00
2018-09-13T01:37:45.801Z,0.00
2018-09-13T01:38:45.849Z,0.00
2018-09-13T01:39:45.904Z,0.00
2018-09-13T01:40:46.055Z,0.00
2018-09-13T01:41:46.006Z,0.00
2018-09-13T01:42:46.067Z,0.00
2018-09-13T01:43:46.107Z,0.00
2018-09-13T01:44:46.156Z,0.00
2018-09-13T01:45:47.066Z,0.00
2018-09-13T01:46:46.324Z,0.00
2018-09-13T01:47:46.870Z,0.00
2018-09-13T01:48:46.367Z,0.00
2018-09-13T01:49:46.414Z,0.00
2018-09-13T01:50:46.503Z,0.00
2018-09-13T01:51:46.516Z,0.00
2018-09-13T01:52:46.582Z,0.00
2018-09-13T01:53:46.630Z,0.00
2018-09-13T01:54:46.681Z,0.00
2018-09-13T01:55:46.724Z,0.00
2018-09-13T01:56:46.770Z,0.00
2018-09-13T01:57:46.838Z,0.00
2018-09-13T01:58:47.569Z,0.00
2018-09-13T01:59:46.926Z,0.00
2018-09-13T02:00:46.972Z,0.00
2018-09-13T02:01:47.114Z,0.00
2018-09-13T02:02:47.072Z,0.00
2018-09-13T02:03:47.125Z,0.00
2018-09-13T02:04:47.184Z,0.00
2018-09-13T02:05:47.244Z,0.00
2018-09-13T02:06:47.285Z,0.00
2018-09-13T02:07:47.354Z,0.00
2018-09-13T02:08:47.382Z,0.00
2018-09-13T02:09:47.434Z,0.00
2018-09-13T02:10:47.481Z,0.00
2018-09-13T02:11:47.535Z,0.00
2018-09-13T02:12:47.607Z,0.00
2018-09-13T02:13:47.636Z,0.00
2018-09-13T02:14:47.685Z,0.00
2018-09-13T02:15:47.781Z,0.00
2018-09-13T02:16:51.077Z,0.00
2018-09-13T02:17:49.573Z,0.00
2018-09-13T02:18:47.884Z,0.00
2018-09-13T02:19:47.945Z,0.00
2018-09-13T02:20:48.045Z,0.00
2018-09-13T02:21:48.038Z,0.00
2018-09-13T02:22:48.091Z,0.00
2018-09-13T02:23:48.168Z,0.00
2018-09-13T02:24:48.219Z,0.00
2018-09-13T02:25:48.241Z,0.00
2018-09-13T02:26:48.295Z,0.00
2018-09-13T02:27:48.468Z,0.00
2018-09-13T02:28:48.416Z,0.00
2018-09-13T02:29:48.470Z,0.00
2018-09-13T02:30:48.501Z,0.00
2018-09-13T02:31:48.546Z,0.00
2018-09-13T02:32:48.600Z,0.00
2018-09-13T02:33:48.649Z,0.00
2018-09-13T02:34:48.738Z,0.00
2018-09-13T02:35:48.749Z,0.00
2018-09-13T02:36:48.803Z,0.00
2018-09-13T02:37:48.849Z,0.00
2018-09-13T02:38:48.925Z,0.00
2018-09-13T02:39:48.975Z,0.00
2018-09-13T02:40:49.014Z,0.00
2018-09-13T02:41:49.064Z,0.00
2018-09-13T02:42:49.107Z,0.00
2018-09-13T02:43:49.174Z,0.00
2018-09-13T02:44:49.235Z,0.00
2018-09-13T02:45:49.256Z,0.00
2018-09-13T02:46:49.308Z,0.00
2018-09-13T02:47:49.368Z,0.00
2018-09-13T02:48:49.406Z,0.00
2018-09-13T02:49:49.484Z,0.00
2018-09-13T02:50:49.511Z,0.00
2018-09-13T02:51:49.570Z,0.00
2018-09-13T02:52:49.614Z,0.00
2018-09-13T02:53:49.669Z,0.00
2018-09-13T02:54:49.747Z,0.00
2018-09-13T02:55:49.782Z,0.00
2018-09-13T02:56:49.817Z,0.00
2018-09-13T02:57:49.866Z,0.00
2018-09-13T02:58:49.914Z,0.00
2018-09-13T02:59:50.009Z,0.00
2018-09-13T03:00:50.025Z,0.00
2018-09-13T03:01:50.087Z,0.00
2018-09-13T03:02:50.121Z,0.00
2018-09-13T03:03:50.170Z,0.00
2018-09-13T03:04:50.219Z,0.00
2018-09-13T03:05:50.279Z,0.00
2018-09-13T03:06:50.345Z,0.00
2018-09-13T03:07:50.377Z,0.00
2018-09-13T03:08:50.428Z,0.00
2018-09-13T03:09:50.473Z,0.00
2018-09-13T03:10:50.524Z,0.00
2018-09-13T03:11:50.594Z,0.00
2018-09-13T03:12:50.629Z,0.00
2018-09-13T03:13:50.673Z,0.00
2018-09-13T03:14:50.731Z,0.00
2018-09-13T03:15:50.777Z,0.00
2018-09-13T03:16:50.856Z,0.00
2018-09-13T03:17:50.880Z,0.00
2018-09-13T03:18:50.963Z,0.00
2018-09-13T03:19:50.982Z,0.00
2018-09-13T03:20:51.043Z,0.00
2018-09-13T03:21:51.091Z,0.00
2018-09-13T03:22:51.158Z,0.00
2018-09-13T03:23:51.419Z,0.00
2018-09-13T03:24:51.231Z,0.00
2018-09-13T03:25:51.291Z,0.00
2018-09-13T03:26:51.335Z,0.00
2018-09-13T03:27:51.391Z,0.00
2018-09-13T03:28:51.458Z,0.00
2018-09-13T03:29:51.495Z,0.00
2018-09-13T03:30:51.578Z,0.00
2018-09-13T03:31:51.586Z,0.00
2018-09-13T03:32:51.668Z,0.00
2018-09-13T03:33:51.690Z,0.00
2018-09-13T03:34:51.739Z,0.00
2018-09-13T03:35:51.789Z,0.00
2018-09-13T03:36:51.845Z,0.00
2018-09-13T03:37:51.939Z,0.00
2018-09-13T03:38:51.942Z,0.00
2018-09-13T03:39:51.999Z,0.00
2018-09-13T03:40:52.052Z,0.00
2018-09-13T03:41:52.146Z,0.00
2018-09-13T03:42:52.165Z,0.00
2018-09-13T03:43:52.217Z,0.00
2018-09-13T03:44:52.901Z,0.00
2018-09-13T03:45:52.300Z,0.00
2018-09-13T03:46:52.358Z,0.00
2018-09-13T03:47:52.398Z,0.00
2018-09-13T03:48:52.468Z,0.00
2018-09-13T03:49:52.499Z,0.00
2018-09-13T03:50:52.552Z,0.00
2018-09-13T03:51:52.609Z,0.00
2018-09-13T03:52:52.653Z,0.00
2018-09-13T03:53:52.719Z,0.00
2018-09-13T03:54:52.749Z,0.00
2018-09-13T03:55:52.822Z,0.00
2018-09-13T03:56:52.852Z,0.00
2018-09-13T03:57:52.899Z,0.00
2018-09-13T03:58:52.950Z,0.00
2018-09-13T03:59:53.004Z,0.00
2018-09-13T04:00:53.078Z,0.00
2018-09-13T04:01:53.153Z,0.00
2018-09-13T04:02:53.158Z,0.00
2018-09-13T04:03:53.203Z,0.00
2018-09-13T04:04:53.257Z,0.00
2018-09-13T04:05:53.330Z,0.00
2018-09-13T04:06:53.363Z,0.00
2018-09-13T04:07:53.417Z,0.00
2018-09-13T04:08:53.456Z,0.00
2018-09-13T04:09:53.535Z,0.00
2018-09-13T04:10:53.565Z,0.00
2018-09-13T04:11:53.645Z,0.00
2018-09-13T04:12:53.659Z,0.00
2018-09-13T04:13:53.710Z,0.00
2018-09-13T04:14:53.764Z,0.00
2018-09-13T04:15:53.832Z,0.00
2018-09-13T04:16:53.867Z,0.00
2018-09-13T04:17:54.058Z,0.00
2018-09-13T04:18:53.984Z,0.00
2018-09-13T04:19:54.021Z,0.00
2018-09-13T04:20:54.061Z,0.00
2018-09-13T04:21:54.118Z,0.00
2018-09-13T04:22:54.186Z,0.00
2018-09-13T04:23:54.219Z,0.00
2018-09-13T04:24:54.267Z,0.00
2018-09-13T04:25:54.334Z,0.00
2018-09-13T04:26:54.384Z,0.00
2018-09-13T04:27:54.416Z,4.00
2018-09-13T04:28:54.467Z,4.00
2018-09-13T04:29:54.525Z,4.00
2018-09-13T04:30:54.602Z,4.00
2018-09-13T04:31:54.620Z,8.00
2018-09-13T04:32:54.718Z,8.00
2018-09-13T04:33:54.718Z,12.00
2018-09-13T04:34:54.769Z,12.00
2018-09-13T04:35:54.879Z,12.00
2018-09-13T04:36:54.876Z,16.00
2018-09-13T04:37:54.923Z,20.00
2018-09-13T04:38:54.983Z,20.00
2018-09-13T04:39:55.048Z,28.00
2018-09-13T04:40:55.076Z,36.00
2018-09-13T04:41:55.126Z,40.00
2018-09-13T04:42:55.174Z,52.00
2018-09-13T04:43:55.222Z,60.00
2018-09-13T04:44:55.315Z,72.00
2018-09-13T04:45:55.328Z,80.00
2018-09-13T04:46:55.373Z,92.00
2018-09-13T04:47:55.443Z,108.00
2018-09-13T04:48:55.475Z,128.00
2018-09-13T04:49:55.532Z,144.00
2018-09-13T04:50:55.590Z,164.00
2018-09-13T04:51:55.628Z,184.00
2018-09-13T04:52:55.701Z,208.00
2018-09-13T04:53:55.728Z,232.00
2018-09-13T04:54:55.783Z,260.00
2018-09-13T04:55:55.853Z,288.00
2018-09-13T04:56:55.880Z,328.00
2018-09-13T04:57:55.953Z,360.00
2018-09-13T04:58:55.978Z,396.00
2018-09-13T04:59:56.033Z,432.00
2018-09-13T05:00:56.088Z,468.00
2018-09-13T05:01:56.140Z,500.00
2018-09-13T05:02:56.203Z,536.00
2018-09-13T05:03:56.236Z,568.00
2018-09-13T05:04:56.286Z,604.00
2018-09-13T05:05:56.339Z,636.00
2018-09-13T05:06:56.479Z,672.00
2018-09-13T05:07:56.456Z,704.00
2018-09-13T05:08:56.482Z,740.00
2018-09-13T05:09:56.535Z,776.00
2018-09-13T05:10:56.586Z,816.00
2018-09-13T05:11:56.638Z,856.00
2018-09-13T05:12:56.743Z,900.00
2018-09-13T05:13:56.829Z,952.00
2018-09-13T05:14:56.787Z,1024.00
2018-09-13T05:15:56.837Z,1112.00
2018-09-13T05:16:56.887Z,1208.00
2018-09-13T05:17:56.965Z,1316.00
2018-09-13T05:18:56.989Z,1424.00
2018-09-13T05:19:57.037Z,1524.00
2018-09-13T05:20:57.170Z,1620.00
2018-09-13T05:21:57.146Z,1696.00
2018-09-13T05:22:57.212Z,1768.00
2018-09-13T05:23:57.249Z,1836.00
2018-09-13T05:24:57.295Z,1896.00
2018-09-13T05:25:57.351Z,1956.00
2018-09-13T05:26:57.390Z,2008.00
2018-09-13T05:27:57.484Z,2056.00
2018-09-13T05:28:57.493Z,2108.00
2018-09-13T05:29:57.541Z,2160.00
2018-09-13T05:30:57.593Z,2208.00
2018-09-13T05:31:57.649Z,2260.00
2018-09-13T05:32:57.710Z,2316.00
2018-09-13T05:33:57.766Z,2392.00
2018-09-13T05:34:57.830Z,2492.00
2018-09-13T05:35:57.850Z,2616.00
2018-09-13T05:36:57.902Z,2732.00
2018-09-13T05:37:57.947Z,2836.00
2018-09-13T05:38:59.225Z,2912.00
2018-09-13T05:39:58.630Z,2976.00
2018-09-13T05:40:58.099Z,3044.00
2018-09-13T05:41:58.152Z,3152.00
2018-09-13T05:42:58.203Z,3276.00
2018-09-13T05:43:58.249Z,3380.00
2018-09-13T05:44:58.321Z,3492.00
2018-09-13T05:45:58.380Z,3564.00
2018-09-13T05:46:58.401Z,3664.00
2018-09-13T05:47:58.466Z,3752.00
2018-09-13T05:48:58.509Z,3812.00
2018-09-13T05:49:58.578Z,3804.00
2018-09-13T05:50:58.600Z,3824.00
2018-09-13T05:51:58.654Z,3852.00
2018-09-13T05:52:58.702Z,3884.00
2018-09-13T05:53:58.792Z,3972.00
2018-09-13T05:54:58.811Z,3952.00
2018-09-13T05:55:58.877Z,3960.00
2018-09-13T05:56:58.911Z,4012.00
2018-09-13T05:57:58.974Z,4064.00
2018-09-13T05:58:59.006Z,4132.00
2018-09-13T05:59:59.056Z,4176.00
2018-09-13T06:00:59.116Z,4232.00
2018-09-13T06:01:59.160Z,4284.00
2018-09-13T06:02:59.226Z,4352.00
2018-09-13T06:03:59.265Z,4428.00
2018-09-13T06:04:59.309Z,4488.00
2018-09-13T06:05:59.370Z,4544.00
2018-09-13T06:06:59.410Z,4596.00
2018-09-13T06:07:59.507Z,4660.00
2018-09-13T06:08:59.513Z,4764.00
2018-09-13T06:09:59.573Z,4868.00
2018-09-13T06:10:59.617Z,4968.00
2018-09-13T06:11:59.677Z,5032.00
2018-09-13T06:12:59.756Z,5092.00
2018-09-13T06:13:59.764Z,5124.00
2018-09-13T06:14:59.819Z,5156.00
2018-09-13T06:15:59.885Z,5228.00
2018-09-13T06:16:59.922Z,5368.00
2018-09-13T06:17:59.996Z,5720.00
2018-09-13T06:19:00.013Z,5948.00
2018-09-13T06:20:00.096Z,7172.00
2018-09-13T06:21:00.123Z,7716.00
2018-09-13T06:22:00.173Z,8456.00
2018-09-13T06:23:00.239Z,9396.00
2018-09-13T06:24:00.275Z,9920.00
2018-09-13T06:25:00.322Z,9268.00
2018-09-13T06:26:00.396Z,7488.00
2018-09-13T06:27:00.449Z,5936.00
2018-09-13T06:28:00.493Z,5432.00
2018-09-13T06:29:00.566Z,5612.00
2018-09-13T06:30:00.580Z,4680.00
2018-09-13T06:31:00.662Z,4772.00
2018-09-13T06:32:00.689Z,4504.00
2018-09-13T06:33:00.755Z,4380.00
2018-09-13T06:34:00.804Z,4076.00
2018-09-13T06:35:00.831Z,4028.00
2018-09-13T06:36:00.882Z,4148.00
2018-09-13T06:37:00.964Z,4524.00
2018-09-13T06:38:01.013Z,4208.00
2018-09-13T06:39:01.045Z,4576.00
2018-09-13T06:40:01.099Z,5108.00
2018-09-13T06:41:01.143Z,5056.00
2018-09-13T06:42:01.221Z,5212.00
2018-09-13T06:43:01.236Z,5908.00
2018-09-13T06:44:01.293Z,6076.00
2018-09-13T06:45:01.368Z,5268.00
2018-09-13T06:46:01.392Z,4572.00
2018-09-13T06:47:01.441Z,4880.00
2018-09-13T06:48:01.512Z,4424.00
2018-09-13T06:49:01.546Z,5088.00
2018-09-13T06:50:01.749Z,5892.00
2018-09-13T06:51:02.640Z,5488.00
2018-09-13T06:52:01.698Z,5564.00
2018-09-13T06:53:01.758Z,5760.00
2018-09-13T06:54:01.841Z,6056.00
2018-09-13T06:55:01.866Z,6124.00
2018-09-13T06:56:01.899Z,6408.00
2018-09-13T06:57:01.955Z,6388.00
2018-09-13T06:58:02.039Z,6144.00
2018-09-13T06:59:02.055Z,6120.00
2018-09-13T07:00:02.125Z,5236.00
2018-09-13T07:01:02.152Z,5212.00
2018-09-13T07:02:02.203Z,4960.00
2018-09-13T07:03:02.257Z,5024.00
2018-09-13T07:04:02.325Z,5480.00
2018-09-13T07:05:02.381Z,5572.00
2018-09-13T07:06:02.433Z,5428.00
2018-09-13T07:07:02.456Z,5552.00
2018-09-13T07:08:02.517Z,5808.00
2018-09-13T07:09:02.576Z,6192.00
2018-09-13T07:10:02.620Z,6548.00
2018-09-13T07:11:02.759Z,6648.00
2018-09-13T07:12:02.723Z,6584.00
2018-09-13T07:13:02.763Z,6816.00
2018-09-13T07:14:02.818Z,7784.00
2018-09-13T07:15:02.866Z,8168.00
2018-09-13T07:16:02.945Z,8148.00
2018-09-13T07:17:02.968Z,8348.00
2018-09-13T07:18:03.100Z,8688.00
2018-09-13T07:19:03.077Z,10088.00
2018-09-13T07:20:03.124Z,11732.00
2018-09-13T07:21:03.197Z,12200.00
2018-09-13T07:22:03.251Z,11904.00
2018-09-13T07:23:03.273Z,11780.00
2018-09-13T07:24:03.337Z,10740.00
2018-09-13T07:25:03.381Z,9488.00
2018-09-13T07:26:03.427Z,9192.00
2018-09-13T07:27:03.507Z,9892.00
2018-09-13T07:28:03.525Z,10728.00
2018-09-13T07:29:03.577Z,11856.00
2018-09-13T07:30:03.629Z,12220.00
2018-09-13T07:31:03.682Z,11644.00
2018-09-13T07:32:03.758Z,10848.00
2018-09-13T07:33:03.783Z,9636.00
2018-09-13T07:34:03.848Z,7988.00
2018-09-13T07:35:03.885Z,7248.00
2018-09-13T07:36:03.936Z,7596.00
2018-09-13T07:37:04.029Z,8684.00
2018-09-13T07:38:04.039Z,9012.00
2018-09-13T07:39:04.094Z,9204.00
2018-09-13T07:40:04.147Z,9704.00
2018-09-13T07:41:04.198Z,9760.00
2018-09-13T07:42:04.262Z,9500.00
2018-09-13T07:43:04.300Z,9124.00
2018-09-13T07:44:04.352Z,8680.00
2018-09-13T07:45:04.399Z,8684.00
2018-09-13T07:46:04.448Z,8988.00
2018-09-13T07:47:04.527Z,10024.00
2018-09-13T07:48:04.551Z,12788.00
2018-09-13T07:49:04.657Z,14032.00
2018-09-13T07:50:04.651Z,15400.00
2018-09-13T07:51:04.707Z,17632.00
2018-09-13T07:52:04.776Z,18592.00
2018-09-13T07:53:04.825Z,17536.00
2018-09-13T07:54:04.862Z,18368.00
2018-09-13T07:55:04.908Z,30688.00
2018-09-13T07:56:04.959Z,57152.00
2018-09-13T07:57:05.010Z,39776.00
2018-09-13T07:58:05.079Z,59136.00
2018-09-13T07:59:05.134Z,63008.00
2018-09-13T08:00:05.170Z,67616.00
2018-09-13T08:01:05.220Z,67360.00
2018-09-13T08:02:05.284Z,68320.00
2018-09-13T08:03:05.367Z,65696.00
2018-09-13T08:04:05.376Z,63040.00
2018-09-13T08:05:05.485Z,57216.00
2018-09-13T08:06:05.482Z,66272.00
2018-09-13T08:07:05.552Z,56096.00
2018-09-13T08:08:05.616Z,64640.00
2018-09-13T08:09:05.637Z,62560.00
2018-09-13T08:10:05.736Z,63520.00
2018-09-13T08:11:05.751Z,65792.00
2018-09-13T08:12:05.922Z,35264.00
2018-09-13T08:13:05.858Z,43744.00
2018-09-13T08:14:05.913Z,38336.00
2018-09-13T08:15:05.994Z,31456.00
2018-09-13T08:16:06.013Z,53760.00
2018-09-13T08:17:06.070Z,45824.00
2018-09-13T08:18:06.122Z,37344.00
2018-09-13T08:19:06.177Z,34048.00
2018-09-13T08:20:06.249Z,27872.00
2018-09-13T08:21:08.186Z,31872.00
2018-09-13T08:22:06.362Z,27520.00
2018-09-13T08:23:06.388Z,35488.00
2018-09-13T08:24:06.447Z,63168.00
2018-09-13T08:25:06.518Z,60448.00
2018-09-13T08:26:06.568Z,64960.00
2018-09-13T08:27:06.610Z,66112.00
2018-09-13T08:28:06.665Z,58816.00
2018-09-13T08:29:06.731Z,63136.00
2018-09-13T08:30:06.786Z,67520.00
2018-09-13T08:31:06.815Z,63264.00
2018-09-13T08:32:06.874Z,64992.00
2018-09-13T08:33:06.925Z,61984.00
2018-09-13T08:34:06.973Z,65312.00
2018-09-13T08:35:07.112Z,66272.00
2018-09-13T08:36:07.088Z,69728.00
2018-09-13T08:37:07.228Z,72192.00
2018-09-13T08:38:07.193Z,68928.00
2018-09-13T08:39:07.278Z,59296.00
2018-09-13T08:40:07.404Z,64128.00
2018-09-13T08:41:07.358Z,62656.00
2018-09-13T08:42:07.419Z,64480.00
2018-09-13T08:43:07.558Z,61696.00
2018-09-13T08:44:07.521Z,42912.00
2018-09-13T08:45:07.625Z,43456.00
2018-09-13T08:46:07.655Z,35744.00
2018-09-13T08:47:07.704Z,33440.00
2018-09-13T08:48:07.745Z,33152.00
2018-09-13T08:49:08.679Z,33056.00
2018-09-13T08:50:07.857Z,39328.00
2018-09-13T08:51:07.930Z,32928.00
2018-09-13T08:52:08.012Z,49312.00
2018-09-13T08:53:08.040Z,64864.00
2018-09-13T08:54:08.067Z,40064.00
2018-09-13T08:55:08.150Z,53184.00
2018-09-13T08:56:08.202Z,40320.00
2018-09-13T08:57:08.229Z,28800.00
2018-09-13T08:58:08.307Z,28928.00
2018-09-13T08:59:08.437Z,30528.00
2018-09-13T09:00:08.412Z,44416.00
2018-09-13T09:01:08.989Z,55840.00
2018-09-13T09:02:08.511Z,71360.00
2018-09-13T09:03:08.582Z,76000.00
2018-09-13T09:04:08.671Z,74752.00
2018-09-13T09:05:08.672Z,71296.00
2018-09-13T09:06:08.825Z,80928.00
2018-09-13T09:07:08.788Z,78496.00
2018-09-13T09:08:08.823Z,74432.00
2018-09-13T09:09:08.940Z,70528.00
2018-09-13T09:10:08.933Z,68288.00
2018-09-13T09:11:09.015Z,70176.00
2018-09-13T09:12:09.044Z,72832.00
2018-09-13T09:13:09.100Z,68288.00
2018-09-13T09:14:09.173Z,79136.00
2018-09-13T09:15:09.208Z,80096.00
2018-09-13T09:16:09.261Z,79104.00
2018-09-13T09:17:09.324Z,79200.00
2018-09-13T09:18:09.376Z,82176.00
2018-09-13T09:19:09.448Z,86560.00
2018-09-13T09:20:09.507Z,86464.00
2018-09-13T09:21:09.552Z,81312.00
2018-09-13T09:22:09.604Z,74848.00
2018-09-13T09:23:09.657Z,70816.00
2018-09-13T09:24:09.728Z,72672.00
2018-09-13T09:25:09.851Z,74560.00
2018-09-13T09:26:09.828Z,75520.00
2018-09-13T09:27:09.872Z,73600.00
2018-09-13T09:28:09.937Z,74656.00
2018-09-13T09:29:09.997Z,77920.00
2018-09-13T09:30:10.076Z,81184.00
2018-09-13T09:31:10.127Z,81248.00
2018-09-13T09:32:10.150Z,78752.00
2018-09-13T09:33:10.208Z,77056.00
2018-09-13T09:34:10.264Z,76352.00
2018-09-13T09:35:10.401Z,76992.00
2018-09-13T09:36:10.437Z,82496.00
2018-09-13T09:37:10.426Z,87232.00
2018-09-13T09:38:10.485Z,87584.00
2018-09-13T09:39:10.542Z,85920.00
2018-09-13T09:40:10.598Z,84160.00
2018-09-13T09:41:10.670Z,84512.00
2018-09-13T09:42:10.737Z,86688.00
2018-09-13T09:43:10.752Z,91680.00
2018-09-13T09:44:10.870Z,95200.00
2018-09-13T09:45:10.870Z,92928.00
2018-09-13T09:46:10.927Z,86784.00
2018-09-13T09:47:10.994Z,80064.00
2018-09-13T09:48:11.104Z,78336.00
2018-09-13T09:49:11.088Z,79392.00
2018-09-13T09:50:11.169Z,76736.00
2018-09-13T09:51:11.193Z,64640.00
2018-09-13T09:52:11.331Z,59040.00
2018-09-13T09:53:11.309Z,74048.00
2018-09-13T09:54:11.358Z,90240.00
2018-09-13T09:55:11.432Z,93984.00
2018-09-13T09:56:11.492Z,92736.00
2018-09-13T09:57:11.553Z,84576.00
2018-09-13T09:58:11.638Z,76128.00
2018-09-13T09:59:11.637Z,70880.00
2018-09-13T10:00:11.696Z,74272.00
2018-09-13T10:01:11.748Z,87648.00
2018-09-13T10:02:11.806Z,98144.00
2018-09-13T10:03:11.951Z,101216.00
2018-09-13T10:04:11.926Z,99456.00
2018-09-13T10:05:11.983Z,90720.00
2018-09-13T10:06:12.018Z,96480.00
2018-09-13T10:07:12.080Z,82656.00
2018-09-13T10:08:12.157Z,80544.00
2018-09-13T10:09:12.280Z,76352.00
2018-09-13T10:10:12.244Z,52896.00
2018-09-13T10:11:12.306Z,41600.00
2018-09-13T10:12:12.353Z,39616.00
2018-09-13T10:13:12.431Z,39456.00
2018-09-13T10:14:12.483Z,41952.00
2018-09-13T10:15:12.574Z,97056.00
2018-09-13T10:16:12.630Z,77824.00
2018-09-13T10:17:12.632Z,39936.00
2018-09-13T10:18:12.685Z,39776.00
2018-09-13T10:19:12.738Z,68960.00
2018-09-13T10:20:12.829Z,36288.00
2018-09-13T10:21:12.847Z,36832.00
2018-09-13T10:22:13.720Z,33536.00
2018-09-13T10:23:12.960Z,38752.00
2018-09-13T10:24:13.053Z,34080.00
2018-09-13T10:25:13.097Z,31680.00
2018-09-13T10:26:13.122Z,31424.00
2018-09-13T10:27:13.195Z,30944.00
2018-09-13T10:28:13.237Z,31744.00
2018-09-13T10:29:13.299Z,33408.00
2018-09-13T10:30:13.383Z,38336.00
2018-09-13T10:31:13.401Z,57184.00
2018-09-13T10:32:13.449Z,64320.00
2018-09-13T10:33:13.504Z,80160.00
2018-09-13T10:34:13.556Z,51296.00
2018-09-13T10:35:13.630Z,47264.00
2018-09-13T10:36:13.665Z,56768.00
2018-09-13T10:37:13.721Z,49056.00
2018-09-13T10:38:13.767Z,61216.00
2018-09-13T10:39:13.823Z,47936.00
2018-09-13T10:40:13.917Z,49152.00
2018-09-13T10:41:13.930Z,44160.00
2018-09-13T10:42:13.992Z,42272.00
2018-09-13T10:43:14.041Z,41056.00
2018-09-13T10:44:14.092Z,43008.00
2018-09-13T10:45:14.189Z,40704.00
2018-09-13T10:46:14.229Z,44224.00
2018-09-13T10:47:14.255Z,44160.00
2018-09-13T10:48:14.383Z,67392.00
2018-09-13T10:49:14.365Z,51424.00
2018-09-13T10:50:14.424Z,60448.00
2018-09-13T10:51:14.489Z,81504.00
2018-09-13T10:52:14.586Z,63840.00
2018-09-13T10:53:14.596Z,47744.00
2018-09-13T10:54:14.646Z,40928.00
2018-09-13T10:55:14.686Z,40800.00
2018-09-13T10:56:14.759Z,68736.00
2018-09-13T10:57:14.798Z,79424.00
2018-09-13T10:58:14.852Z,93760.00
2018-09-13T10:59:14.955Z,69504.00
2018-09-13T11:00:14.965Z,96256.00
2018-09-13T11:01:15.059Z,109248.00
2018-09-13T11:02:15.064Z,87072.00
2018-09-13T11:03:15.122Z,96224.00
2018-09-13T11:04:15.200Z,95904.00
2018-09-13T11:05:15.233Z,78048.00
2018-09-13T11:06:15.312Z,70880.00
2018-09-13T11:07:15.344Z,62848.00
2018-09-13T11:08:15.400Z,56032.00
2018-09-13T11:09:15.457Z,65760.00
2018-09-13T11:10:15.528Z,84096.00
2018-09-13T11:11:15.602Z,64288.00
2018-09-13T11:12:15.618Z,53856.00
2018-09-13T11:13:15.672Z,67424.00
2018-09-13T11:14:15.730Z,104128.00
2018-09-13T11:15:15.804Z,79360.00
2018-09-13T11:16:15.857Z,87968.00
2018-09-13T11:17:15.896Z,70944.00
2018-09-13T11:18:15.984Z,50432.00
2018-09-13T11:19:16.011Z,46144.00
2018-09-13T11:20:16.068Z,46496.00
2018-09-13T11:21:16.146Z,58752.00
2018-09-13T11:22:16.187Z,50848.00
2018-09-13T11:23:16.257Z,47808.00
2018-09-13T11:24:16.295Z,44608.00
2018-09-13T11:25:16.344Z,42752.00
2018-09-13T11:26:16.408Z,40288.00
2018-09-13T11:27:16.459Z,39360.00
2018-09-13T11:28:16.555Z,40064.00
2018-09-13T11:29:16.576Z,47712.00
2018-09-13T11:30:16.624Z,40896.00
2018-09-13T11:31:16.682Z,39968.00
2018-09-13T11:32:16.742Z,39616.00
2018-09-13T11:33:16.830Z,40448.00
2018-09-13T11:34:16.849Z,48800.00
2018-09-13T11:35:16.907Z,51936.00
2018-09-13T11:36:16.981Z,56512.00
2018-09-13T11:37:17.023Z,61984.00
2018-09-13T11:38:17.093Z,74240.00
2018-09-13T11:39:17.157Z,59360.00
2018-09-13T11:40:17.248Z,83936.00
2018-09-13T11:41:17.237Z,135680.00
2018-09-13T11:42:17.299Z,135904.00
2018-09-13T11:43:17.349Z,99296.00
2018-09-13T11:44:17.434Z,86464.00
2018-09-13T11:45:17.463Z,68128.00
2018-09-13T11:46:17.519Z,88896.00
2018-09-13T11:47:17.569Z,88128.00
2018-09-13T11:48:17.626Z,64032.00
2018-09-13T11:49:17.730Z,59520.00
2018-09-13T11:50:17.741Z,47808.00
2018-09-13T11:51:17.796Z,58976.00
2018-09-13T11:52:17.860Z,50848.00
2018-09-13T11:53:17.906Z,78912.00
2018-09-13T11:54:17.990Z,109504.00
2018-09-13T11:55:18.040Z,120256.00
2018-09-13T11:56:18.090Z,107456.00
2018-09-13T11:57:18.147Z,46304.00
2018-09-13T11:58:18.189Z,41920.00
2018-09-13T11:59:18.247Z,110272.00
2018-09-13T12:00:18.324Z,101280.00
2018-09-13T12:01:18.430Z,94976.00
2018-09-13T12:02:18.431Z,96672.00
2018-09-13T12:03:18.469Z,101984.00
2018-09-13T12:04:18.526Z,106080.00
2018-09-13T12:05:18.613Z,108192.00
2018-09-13T12:06:18.642Z,104448.00
2018-09-13T12:07:18.697Z,97280.00
2018-09-13T12:08:18.763Z,91520.00
2018-09-13T12:09:18.832Z,90816.00
2018-09-13T12:10:18.897Z,94304.00
2018-09-13T12:11:18.949Z,102208.00
2018-09-13T12:12:18.987Z,108352.00
2018-09-13T12:13:19.820Z,110688.00
2018-09-13T12:14:19.103Z,107232.00
2018-09-13T12:15:19.162Z,99424.00
2018-09-13T12:16:19.241Z,93952.00
2018-09-13T12:17:19.301Z,92544.00
2018-09-13T12:18:19.546Z,93792.00
2018-09-13T12:19:19.450Z,95040.00
2018-09-13T12:20:19.454Z,92896.00
2018-09-13T12:21:19.537Z,88096.00
2018-09-13T12:22:19.588Z,84512.00
2018-09-13T12:23:19.658Z,86880.00